createdAt,value
2019-01-05T00:00:45.297Z,0.68
2019-01-05T00:03:35.821Z,0.40
2019-01-05T00:06:26.944Z,0.60
2019-01-05T00:09:18.118Z,0.40
2019-01-05T00:12:05.056Z,0.60
2019-01-05T00:15:09.246Z,0.50
2019-01-05T00:18:00.050Z,0.60
2019-01-05T00:20:40.717Z,0.70
2019-01-05T00:23:25.168Z,0.50
2019-01-05T00:26:15.555Z,0.50
2019-01-05T00:28:56.641Z,0.40
2019-01-05T00:32:03.351Z,0.35
2019-01-05T00:35:09.539Z,0.60
2019-01-05T00:38:00.376Z,0.80
2019-01-05T00:40:47.403Z,0.60
2019-01-05T00:43:45.095Z,0.60
2019-01-05T00:46:35.150Z,0.50
2019-01-05T00:49:39.658Z,0.70
2019-01-05T00:52:30.937Z,0.40
2019-01-05T00:55:21.726Z,0.60
2019-01-05T00:58:11.773Z,0.40
2019-01-05T01:01:05.042Z,0.40
2019-01-05T01:03:52.605Z,0.40
2019-01-05T01:06:36.140Z,0.50
2019-01-05T01:09:39.678Z,0.40
2019-01-05T01:12:29.581Z,0.40
2019-01-05T01:15:19.188Z,0.33
2019-01-05T01:18:20.639Z,0.65
2019-01-05T01:21:11.813Z,0.40
2019-01-05T01:24:06.695Z,0.40
2019-01-05T01:27:03.664Z,0.30
2019-01-05T01:29:48.891Z,0.37
2019-01-05T01:32:38.420Z,0.40
2019-01-05T01:35:47.573Z,0.40
2019-01-05T01:38:48.012Z,0.50
2019-01-05T01:42:04.937Z,0.53
2019-01-05T01:45:04.610Z,0.50
2019-01-05T01:47:56.314Z,0.30
2019-01-05T01:50:49.715Z,0.47
2019-01-05T01:53:39.800Z,0.30
2019-01-05T01:56:33.713Z,0.40
2019-01-05T01:59:32.975Z,0.90
2019-01-05T02:02:21.826Z,1.10
2019-01-05T02:05:12.774Z,0.70
2019-01-05T02:08:07.527Z,0.57
2019-01-05T02:11:04.146Z,0.60
2019-01-05T02:13:59.046Z,0.55
2019-01-05T02:17:03.616Z,0.62
2019-01-05T02:20:11.514Z,0.70
2019-01-05T02:24:10.027Z,0.90
2019-01-05T02:27:39.642Z,0.60
2019-01-05T02:31:17.408Z,0.37
2019-01-05T02:35:03.897Z,0.40
2019-01-05T02:38:37.684Z,0.40
2019-01-05T02:42:09.402Z,0.20
2019-01-05T02:45:49.160Z,0.30
2019-01-05T02:49:27.479Z,0.40
2019-01-05T02:52:54.705Z,0.23
2019-01-05T02:56:47.392Z,0.40
2019-01-05T03:00:36.441Z,0.25
2019-01-05T03:03:58.687Z,0.23
2019-01-05T03:08:04.429Z,0.50
2019-01-05T03:11:37.058Z,0.20
2019-01-05T03:15:34.987Z,0.20
2019-01-05T03:19:37.714Z,0.20
2019-01-05T03:23:45.163Z,0.20
2019-01-05T03:27:36.023Z,0.10
2019-01-05T03:31:42.521Z,0.10
2019-01-05T03:35:13.040Z,0.15
2019-01-05T03:38:35.275Z,0.20
2019-01-05T03:43:01.320Z,0.10
2019-01-05T03:46:59.356Z,0.10
2019-01-05T03:50:40.686Z,0.10
2019-01-05T03:54:09.258Z,0.15
2019-01-05T03:57:46.726Z,0.10
2019-01-05T04:01:23.413Z,0.10
2019-01-05T04:05:14.453Z,0.10
2019-01-05T04:08:48.879Z,0.10
2019-01-05T04:12:30.325Z,0.10
2019-01-05T04:16:18.012Z,0.20
2019-01-05T04:20:02.506Z,0.10
2019-01-05T04:23:59.804Z,0.10
2019-01-05T04:27:28.293Z,0.20
2019-01-05T04:31:10.956Z,0.10
2019-01-05T04:34:43.914Z,0.20
2019-01-05T04:38:17.134Z,0.20
2019-01-05T04:42:03.855Z,0.23
2019-01-05T04:45:59.032Z,0.10
2019-01-05T04:49:32.515Z,0.10
2019-01-05T04:53:27.277Z,0.10
2019-01-05T04:57:03.195Z,0.20
2019-01-05T05:00:54.692Z,0.20
2019-01-05T05:04:46.857Z,0.10
2019-01-05T05:08:45.388Z,0.28
2019-01-05T05:12:55.275Z,0.20
2019-01-05T05:16:27.927Z,0.10
2019-01-05T05:20:09.302Z,0.30
2019-01-05T05:23:45.997Z,0.20
2019-01-05T05:27:21.040Z,0.30
2019-01-05T05:31:01.057Z,0.10
2019-01-05T05:34:59.834Z,0.20
2019-01-05T05:38:34.093Z,0.10
2019-01-05T05:42:10.002Z,0.10
2019-01-05T05:45:51.201Z,0.10
2019-01-05T05:49:36.708Z,0.20
2019-01-05T05:53:28.174Z,0.17
2019-01-05T05:57:03.584Z,0.17
2019-01-05T06:00:34.763Z,0.10
2019-01-05T06:04:30.378Z,0.20
2019-01-05T06:08:09.897Z,0.20
2019-01-05T06:11:57.126Z,0.10
2019-01-05T06:16:04.106Z,0.10
2019-01-05T06:20:10.089Z,0.20
2019-01-05T06:23:38.775Z,0.30
2019-01-05T06:27:19.499Z,0.20
2019-01-05T06:31:12.769Z,0.20
2019-01-05T06:34:42.269Z,0.20
2019-01-05T06:38:04.902Z,0.30
2019-01-05T06:42:16.774Z,0.20
2019-01-05T06:46:09.247Z,0.20
2019-01-05T06:49:59.255Z,0.40
2019-01-05T06:53:45.245Z,0.20
2019-01-05T06:57:49.567Z,0.30
2019-01-05T07:01:53.702Z,0.40
2019-01-05T07:05:29.215Z,0.30
2019-01-05T07:09:29.723Z,0.30
2019-01-05T07:13:19.534Z,0.40
2019-01-05T07:17:13.249Z,0.35
2019-01-05T07:20:44.547Z,0.40
2019-01-05T07:24:28.076Z,0.40
2019-01-05T07:28:14.407Z,0.40
2019-01-05T07:31:56.636Z,0.33
2019-01-05T07:35:30.370Z,0.50
2019-01-05T07:39:14.871Z,0.55
2019-01-05T07:43:10.134Z,0.50
2019-01-05T07:46:52.033Z,0.60
2019-01-05T07:50:49.913Z,0.60
2019-01-05T07:54:28.411Z,0.55
2019-01-05T07:58:25.506Z,0.60
2019-01-05T08:02:07.181Z,1.00
2019-01-05T08:05:52.965Z,1.50
2019-01-05T08:09:21.272Z,1.45
2019-01-05T08:13:08.681Z,1.95
2019-01-05T08:17:23.499Z,1.98
2019-01-05T08:21:07.834Z,3.17
2019-01-05T08:24:56.264Z,2.17
2019-01-05T08:28:25.775Z,2.72
2019-01-05T08:32:18.195Z,5.42
2019-01-05T08:35:37.044Z,4.37
2019-01-05T08:39:15.692Z,2.33
2019-01-05T08:43:20.122Z,2.25
2019-01-05T08:47:03.763Z,2.30
2019-01-05T08:50:52.219Z,2.40
2019-01-05T08:54:57.904Z,1.80
2019-01-05T08:58:55.549Z,1.95
2019-01-05T09:02:42.929Z,4.10
2019-01-05T09:06:38.908Z,2.58
2019-01-05T09:10:22.687Z,2.08
2019-01-05T09:14:08.550Z,2.75
2019-01-05T09:17:53.421Z,2.80
2019-01-05T09:21:33.887Z,3.07
2019-01-05T09:25:23.921Z,2.95
2019-01-05T09:29:02.433Z,2.90
2019-01-05T09:32:32.395Z,2.60
2019-01-05T09:36:18.010Z,2.35
2019-01-05T09:40:16.223Z,2.15
2019-01-05T09:44:10.510Z,2.45
2019-01-05T09:48:15.647Z,2.95
2019-01-05T09:51:57.672Z,2.12
2019-01-05T09:55:42.963Z,2.80
2019-01-05T09:59:15.607Z,1.77
2019-01-05T10:03:07.692Z,2.47
2019-01-05T10:06:44.464Z,1.80
2019-01-05T10:10:26.017Z,2.12
2019-01-05T10:13:57.706Z,2.22
2019-01-05T10:18:13.700Z,2.35
2019-01-05T10:22:01.414Z,1.75
2019-01-05T10:25:56.729Z,2.27
2019-01-05T10:29:45.219Z,2.30
2019-01-05T10:33:58.547Z,2.00
2019-01-05T10:38:09.282Z,1.50
2019-01-05T10:41:59.188Z,4.80
2019-01-05T10:45:33.452Z,4.12
2019-01-05T10:49:12.796Z,5.22
2019-01-05T10:52:41.753Z,4.00
2019-01-05T10:56:23.602Z,3.87
2019-01-05T10:59:59.282Z,4.40
2019-01-05T11:03:49.399Z,3.43
2019-01-05T11:07:47.374Z,2.67
2019-01-05T11:11:45.251Z,2.22
2019-01-05T11:15:34.350Z,2.30
2019-01-05T11:19:17.783Z,2.40
2019-01-05T11:22:49.555Z,3.37
2019-01-05T11:26:38.881Z,3.15
2019-01-05T11:30:49.422Z,2.50
2019-01-05T11:34:24.818Z,2.55
2019-01-05T11:38:07.330Z,2.40
2019-01-05T11:41:50.395Z,3.37
2019-01-05T11:45:18.871Z,4.03
2019-01-05T11:48:58.449Z,2.45
2019-01-05T11:53:03.036Z,3.15
2019-01-05T11:56:54.698Z,2.90
2019-01-05T12:00:42.753Z,3.10
2019-01-05T12:04:09.862Z,3.98
2019-01-05T12:07:44.904Z,3.65
2019-01-05T12:11:41.344Z,3.62
2019-01-05T12:15:19.004Z,3.33
2019-01-05T12:19:11.518Z,2.98
2019-01-05T12:23:07.114Z,3.77
2019-01-05T12:26:37.991Z,3.42
2019-01-05T12:30:33.407Z,2.95
2019-01-05T12:34:22.675Z,3.00
2019-01-05T12:38:03.756Z,3.20
2019-01-05T12:41:59.668Z,3.30
2019-01-05T12:45:44.078Z,2.80
2019-01-05T12:49:31.145Z,2.95
2019-01-05T12:53:11.400Z,3.20
2019-01-05T12:56:54.677Z,2.92
2019-01-05T13:00:42.904Z,2.92
2019-01-05T13:04:34.950Z,3.08
2019-01-05T13:08:34.036Z,2.70
2019-01-05T13:12:21.551Z,2.75
2019-01-05T13:15:57.872Z,3.00
2019-01-05T13:19:44.862Z,2.50
2019-01-05T13:23:23.048Z,4.28
2019-01-05T13:27:15.667Z,6.65
2019-01-05T13:31:04.418Z,4.87
2019-01-05T13:34:49.052Z,4.62
2019-01-05T13:38:36.004Z,4.40
2019-01-05T13:42:05.583Z,4.22
2019-01-05T13:46:05.614Z,3.22
2019-01-05T13:49:40.400Z,2.80
2019-01-05T13:52:55.823Z,2.70
2019-01-05T13:56:02.226Z,2.67
2019-01-05T13:58:54.635Z,2.40
2019-01-05T14:01:41.648Z,2.20
2019-01-05T14:04:33.717Z,2.00
2019-01-05T14:07:35.374Z,2.62
2019-01-05T14:10:25.443Z,1.90
2019-01-05T14:13:24.245Z,1.77
2019-01-05T14:16:13.878Z,1.60
2019-01-05T14:19:03.440Z,1.40
2019-01-05T14:21:51.030Z,1.40
2019-01-05T14:24:48.172Z,1.70
2019-01-05T14:27:38.209Z,1.62
2019-01-05T14:30:27.963Z,1.57
2019-01-05T14:33:11.687Z,1.70
2019-01-05T14:36:10.970Z,2.05
2019-01-05T14:38:54.307Z,2.00
2019-01-05T14:41:43.888Z,2.20
2019-01-05T14:44:38.785Z,2.20
2019-01-05T14:47:34.553Z,2.75
2019-01-05T14:50:24.597Z,2.62
2019-01-05T14:53:17.132Z,2.87
2019-01-05T14:56:07.674Z,3.20
2019-01-05T14:58:58.526Z,3.20
2019-01-05T15:01:51.247Z,2.92
2019-01-05T15:04:47.896Z,2.58
2019-01-05T15:07:28.929Z,2.47
2019-01-05T15:10:16.604Z,2.80
2019-01-05T15:13:05.510Z,3.00
2019-01-05T15:15:54.652Z,3.20
2019-01-05T15:18:44.056Z,3.35
2019-01-05T15:21:33.310Z,3.77
2019-01-05T15:24:22.643Z,3.65
2019-01-05T15:27:13.210Z,3.35
2019-01-05T15:30:07.430Z,3.65
2019-01-05T15:32:56.371Z,3.65
2019-01-05T15:35:45.660Z,3.87
2019-01-05T15:38:29.636Z,3.50
2019-01-05T15:41:26.020Z,4.00
2019-01-05T15:44:14.630Z,3.90
2019-01-05T15:47:01.107Z,4.90
2019-01-05T15:49:49.956Z,5.12
2019-01-05T15:52:49.742Z,4.30
2019-01-05T15:55:32.687Z,5.47
2019-01-05T15:58:28.073Z,5.97
2019-01-05T16:01:16.851Z,5.30
2019-01-05T16:04:06.282Z,5.42
2019-01-05T16:06:52.938Z,5.53
2019-01-05T16:09:52.853Z,5.60
2019-01-05T16:12:42.090Z,6.28
2019-01-05T16:15:31.476Z,7.12
2019-01-05T16:18:26.206Z,6.65
2019-01-05T16:21:19.188Z,6.42
2019-01-05T16:24:24.971Z,7.08
2019-01-05T16:27:14.341Z,6.97
2019-01-05T16:30:03.518Z,7.97
2019-01-05T16:32:57.318Z,7.03
2019-01-05T16:35:53.612Z,7.33
2019-01-05T16:38:43.301Z,7.40
2019-01-05T16:41:43.403Z,6.95
2019-01-05T16:44:32.543Z,5.85
2019-01-05T16:47:21.546Z,7.12
2019-01-05T16:50:14.662Z,7.50
2019-01-05T16:53:11.540Z,6.87
2019-01-05T16:56:05.171Z,7.10
2019-01-05T16:59:01.707Z,7.37
2019-01-05T17:01:49.732Z,7.60
2019-01-05T17:04:40.263Z,8.65
2019-01-05T17:07:29.284Z,8.15
2019-01-05T17:10:24.342Z,9.40
2019-01-05T17:13:13.000Z,8.40
2019-01-05T17:16:02.373Z,8.45
2019-01-05T17:19:07.938Z,7.53
2019-01-05T17:21:57.885Z,7.60
2019-01-05T17:24:47.294Z,8.23
2019-01-05T17:27:27.766Z,6.67
2019-01-05T17:30:16.385Z,8.30
2019-01-05T17:33:05.276Z,12.65
2019-01-05T17:35:50.657Z,9.85
2019-01-05T17:38:51.709Z,10.05
2019-01-05T17:41:37.862Z,9.43
2019-01-05T17:44:20.598Z,10.30
2019-01-05T17:47:12.441Z,10.85
2019-01-05T17:50:06.838Z,9.60
2019-01-05T17:52:56.061Z,10.90
2019-01-05T17:55:54.565Z,11.22
2019-01-05T17:59:03.382Z,11.00
2019-01-05T18:02:05.571Z,11.38
2019-01-05T18:04:56.748Z,12.18
2019-01-05T18:07:45.732Z,12.70
2019-01-05T18:10:48.273Z,13.10
2019-01-05T18:13:43.016Z,13.85
2019-01-05T18:16:27.862Z,12.98
2019-01-05T18:19:27.122Z,13.30
2019-01-05T18:22:09.791Z,13.25
2019-01-05T18:24:59.548Z,13.83
2019-01-05T18:28:05.399Z,11.63
2019-01-05T18:31:00.138Z,11.00
2019-01-05T18:33:53.549Z,11.73
2019-01-05T18:36:44.188Z,12.33
2019-01-05T18:39:32.890Z,11.00
2019-01-05T18:42:22.077Z,10.50
2019-01-05T18:45:11.057Z,11.70
2019-01-05T18:47:51.324Z,12.18
2019-01-05T18:50:35.085Z,12.78
2019-01-05T18:53:20.752Z,12.13
2019-01-05T18:56:11.621Z,10.13
2019-01-05T18:59:00.585Z,11.25
2019-01-05T19:01:59.720Z,8.78
2019-01-05T19:04:49.149Z,10.20
2019-01-05T19:07:48.884Z,10.30
2019-01-05T19:10:38.600Z,9.53
2019-01-05T19:13:29.144Z,8.90
2019-01-05T19:16:18.435Z,9.68
2019-01-05T19:19:02.128Z,8.98
2019-01-05T19:21:56.342Z,9.50
2019-01-05T19:24:46.001Z,9.28
2019-01-05T19:27:38.164Z,10.03
2019-01-05T19:30:41.512Z,11.15
2019-01-05T19:33:26.266Z,11.33
2019-01-05T19:36:12.272Z,10.98
2019-01-05T19:39:09.792Z,13.05
2019-01-05T19:41:56.182Z,10.08
2019-01-05T19:44:44.859Z,10.50
2019-01-05T19:47:30.589Z,10.68
2019-01-05T19:50:12.521Z,9.73
2019-01-05T19:53:02.582Z,9.18
2019-01-05T19:55:52.657Z,8.98
2019-01-05T19:59:00.832Z,8.55
2019-01-05T20:01:49.807Z,8.63
2019-01-05T20:04:49.288Z,8.88
2019-01-05T20:07:51.122Z,9.20
2019-01-05T20:10:40.326Z,9.13
2019-01-05T20:13:31.803Z,9.98
2019-01-05T20:16:34.972Z,10.38
2019-01-05T20:19:24.422Z,10.13
2019-01-05T20:22:20.914Z,10.55
2019-01-05T20:25:17.558Z,10.60
2019-01-05T20:28:11.108Z,11.50
2019-01-05T20:31:07.534Z,11.57
2019-01-05T20:33:58.154Z,11.38
2019-01-05T20:36:48.118Z,11.40
2019-01-05T20:39:37.480Z,12.15
2019-01-05T20:42:27.135Z,11.93
2019-01-05T20:45:13.184Z,9.95
2019-01-05T20:48:19.115Z,10.23
2019-01-05T20:51:08.040Z,9.85
2019-01-05T20:54:13.433Z,10.82
2019-01-05T20:57:20.066Z,10.30
2019-01-05T21:00:02.837Z,8.75
2019-01-05T21:02:52.281Z,7.35
2019-01-05T21:05:33.248Z,7.90
2019-01-05T21:08:22.361Z,7.62
2019-01-05T21:11:21.713Z,7.53
2019-01-05T21:14:11.208Z,9.25
2019-01-05T21:17:10.801Z,9.73
2019-01-05T21:20:10.110Z,8.80
2019-01-05T21:22:49.276Z,8.60
2019-01-05T21:25:40.647Z,8.13
2019-01-05T21:28:50.092Z,6.72
2019-01-05T21:31:37.343Z,7.12
2019-01-05T21:34:36.077Z,6.67
2019-01-05T21:37:37.386Z,6.70
2019-01-05T21:40:34.916Z,7.05
2019-01-05T21:43:18.266Z,7.08
2019-01-05T21:46:13.683Z,5.70
2019-01-05T21:49:02.714Z,5.72
2019-01-05T21:52:05.371Z,6.10
2019-01-05T21:54:59.269Z,7.60
2019-01-05T21:57:53.145Z,8.53
2019-01-05T22:00:42.359Z,9.70
2019-01-05T22:03:30.955Z,10.40
2019-01-05T22:06:27.826Z,12.55
2019-01-05T22:09:16.707Z,11.93
2019-01-05T22:12:05.976Z,11.22
2019-01-05T22:14:52.487Z,10.72
2019-01-05T22:17:49.232Z,11.80
2019-01-05T22:20:31.997Z,10.32
2019-01-05T22:23:26.204Z,9.88
2019-01-05T22:26:31.347Z,9.88
2019-01-05T22:29:20.276Z,10.23
2019-01-05T22:32:07.441Z,10.75
2019-01-05T22:34:53.016Z,10.70
2019-01-05T22:37:43.374Z,10.45
2019-01-05T22:40:43.290Z,10.78
2019-01-05T22:43:32.372Z,10.05
2019-01-05T22:46:23.195Z,9.95
2019-01-05T22:49:12.553Z,10.63
2019-01-05T22:52:20.939Z,11.15
2019-01-05T22:55:08.058Z,10.68
2019-01-05T22:58:01.362Z,10.53
2019-01-05T23:00:45.912Z,9.93
2019-01-05T23:03:38.519Z,9.23
2019-01-05T23:06:27.881Z,9.58
2019-01-05T23:09:16.845Z,9.15
2019-01-05T23:12:16.670Z,10.10
2019-01-05T23:15:11.334Z,9.60
2019-01-05T23:18:03.943Z,9.55
2019-01-05T23:21:03.609Z,9.53
2019-01-05T23:23:53.119Z,10.35
2019-01-05T23:26:42.466Z,8.93
2019-01-05T23:29:31.632Z,8.53
2019-01-05T23:32:17.038Z,8.68
2019-01-05T23:35:13.757Z,9.45
2019-01-05T23:38:02.713Z,9.08
2019-01-05T23:40:51.888Z,8.40
2019-01-05T23:43:56.316Z,7.97
2019-01-05T23:46:46.790Z,7.17
2019-01-05T23:49:34.685Z,7.83
2019-01-05T23:52:28.154Z,8.55
2019-01-05T23:55:22.589Z,9.30
2019-01-05T23:58:29.895Z,9.35
